Time;durP1;ratioP1;P1;durP2;ratioP2;P2;SDS_P1;SDS_P2;PMS_P1;PMS_P2;Temp;Humidity;BMP_temperature;BMP_pressure;BME280_temperature;BME280_humidity;BME280_pressure;Samples;Min_cycle;Max_cycle;Signal;HPM_P1;HPM_P2
2022/08/30 00:02:30;;;;;;;10.95;6.18;;;;;;;16.92;82.47;102041.63;5050307;28;20036;-86
2022/08/30 00:04:59;;;;;;;13.27;6.30;;;;;;;16.92;83.37;102034.59;5045065;28;20021;-86
2022/08/30 00:07:25;;;;;;;11.45;5.97;;;;;;;16.88;84.21;102038.22;5045593;28;20295;-86
2022/08/30 00:09:50;;;;;;;10.50;6.07;;;;;;;16.86;83.60;102040.03;5057292;28;20105;-86
2022/08/30 00:12:15;;;;;;;12.73;5.80;;;;;;;16.84;83.08;102038.38;5047281;28;20035;-86
2022/08/30 00:14:41;;;;;;;12.32;6.30;;;;;;;16.88;82.94;102037.38;5047899;28;20508;-86
2022/08/30 00:17:06;;;;;;;10.77;6.20;;;;;;;16.87;83.26;102030.41;5043497;28;20037;-86
2022/08/30 00:19:32;;;;;;;12.37;6.23;;;;;;;16.84;83.68;102031.38;5049887;28;20628;-86
2022/08/30 00:21:57;;;;;;;10.82;5.60;;;;;;;16.78;84.04;102031.56;5052752;28;20302;-86
2022/08/30 00:24:22;;;;;;;11.80;6.70;;;;;;;16.77;83.42;102029.00;5051017;28;20064;-86
2022/08/30 00:26:47;;;;;;;11.50;6.47;;;;;;;16.78;84.74;102030.72;5055036;28;20035;-86
2022/08/30 00:29:13;;;;;;;15.20;6.30;;;;;;;16.77;84.17;102040.34;5050773;28;20333;-86
2022/08/30 00:31:38;;;;;;;10.75;6.10;;;;;;;16.73;83.58;102036.06;5050942;28;20267;-86
2022/08/30 00:34:04;;;;;;;11.15;6.03;;;;;;;16.71;84.40;102034.44;5046215;28;20025;-86
2022/08/30 00:36:29;;;;;;;14.82;6.82;;;;;;;16.69;84.18;102031.84;5046507;28;20029;-86
2022/08/30 00:38:54;;;;;;;12.63;6.18;;;;;;;16.67;84.92;102033.63;5046296;28;20041;-86
2022/08/30 00:41:20;;;;;;;11.57;6.23;;;;;;;16.62;83.95;102025.06;5048645;28;20082;-86
2022/08/30 00:43:46;;;;;;;11.77;5.95;;;;;;;16.60;84.24;102029.50;5044163;28;20283;-86
2022/08/30 00:46:11;;;;;;;10.95;6.18;;;;;;;16.57;84.27;102035.66;5040334;28;20021;-86
2022/08/30 00:48:40;;;;;;;9.70;5.97;;;;;;;16.53;84.97;102035.78;5052433;28;20044;-88
2022/08/30 00:51:08;;;;;;;10.63;6.63;;;;;;;16.50;84.36;102034.13;5048969;28;20772;-89
2022/08/30 00:53:37;;;;;;;12.82;6.55;;;;;;;16.46;85.01;102044.72;5044191;28;20065;-89
2022/08/30 00:56:04;;;;;;;10.70;6.57;;;;;;;16.43;84.51;102047.44;5047229;28;20108;-89
2022/08/30 00:58:36;;;;;;;11.77;6.45;;;;;;;16.41;84.91;102047.47;5052410;28;20036;-88
2022/08/30 01:01:03;;;;;;;11.27;6.63;;;;;;;16.39;84.92;102041.41;5037207;28;20033;-89
2022/08/30 01:03:29;;;;;;;12.45;6.45;;;;;;;16.38;84.76;102041.44;5040681;28;20594;-89
2022/08/30 01:05:57;;;;;;;12.50;6.75;;;;;;;16.38;84.88;102041.44;5045660;28;20029;-89
2022/08/30 01:08:22;;;;;;;11.75;6.70;;;;;;;16.37;85.50;102045.00;5053186;28;20020;-89
2022/08/30 01:10:50;;;;;;;12.48;6.60;;;;;;;16.37;85.48;102039.75;5049247;28;20028;-88
2022/08/30 01:13:16;;;;;;;13.85;6.78;;;;;;;16.37;85.51;102043.22;5043265;28;20063;-88
2022/08/30 01:15:43;;;;;;;13.68;6.88;;;;;;;16.37;85.51;102039.75;5048840;28;20029;-89
2022/08/30 01:18:10;;;;;;;9.85;5.95;;;;;;;16.34;85.57;102050.28;5051552;28;20104;-89
2022/08/30 01:20:45;;;;;;;11.98;6.70;;;;;;;16.34;85.94;102051.16;5045866;28;20044;-89
2022/08/30 01:23:15;;;;;;;14.88;7.32;;;;;;;16.32;85.46;102059.94;5047802;28;20078;-88
2022/08/30 01:25:42;;;;;;;12.35;6.38;;;;;;;16.30;86.28;102054.78;5046068;28;20021;-89
2022/08/30 01:28:13;;;;;;;13.30;6.97;;;;;;;16.27;86.55;102054.00;5037640;28;20036;-88
2022/08/30 01:30:41;;;;;;;13.30;6.95;;;;;;;16.29;85.62;102058.28;5049967;28;20573;-88
2022/08/30 01:33:07;;;;;;;12.35;7.57;;;;;;;16.29;86.38;102060.91;5046333;28;20028;-88
2022/08/30 01:35:42;;;;;;;12.52;6.90;;;;;;;16.30;85.64;102060.00;5049764;28;20505;-88
2022/08/30 01:38:08;;;;;;;10.48;6.63;;;;;;;16.31;86.51;102048.63;5036855;28;20445;-88
2022/08/30 01:40:34;;;;;;;13.05;7.28;;;;;;;16.31;85.95;102040.75;5049742;28;20051;-89
2022/08/30 01:42:59;;;;;;;10.97;7.10;;;;;;;16.35;86.20;102054.63;5048042;28;20017;-89
2022/08/30 01:45:24;;;;;;;15.80;7.78;;;;;;;16.35;85.96;102058.09;5049291;28;20855;-88
2022/08/30 01:47:50;;;;;;;13.52;7.72;;;;;;;16.33;86.01;102057.28;5044946;28;20021;-89
2022/08/30 01:50:15;;;;;;;14.00;7.20;;;;;;;16.35;86.33;102063.34;5041845;28;20155;-89
2022/08/30 01:52:41;;;;;;;10.82;7.22;;;;;;;16.29;85.97;102047.81;5047048;28;20290;-88
2022/08/30 01:55:07;;;;;;;11.98;6.95;;;;;;;16.27;86.32;102044.38;5046747;28;20032;-88
2022/08/30 01:57:33;;;;;;;13.73;7.20;;;;;;;16.26;85.89;102044.41;5043267;28;20033;-89
2022/08/30 01:59:58;;;;;;;13.13;8.13;;;;;;;16.21;86.74;102044.56;5046049;28;20078;-88
2022/08/30 02:02:27;;;;;;;13.95;7.47;;;;;;;16.16;86.10;102042.06;5049178;28;20112;-89
2022/08/30 02:04:52;;;;;;;12.60;7.28;;;;;;;16.12;87.03;102039.56;5049111;28;20029;-89
2022/08/30 02:07:19;;;;;;;12.70;7.20;;;;;;;16.06;86.94;102042.34;5037602;28;20062;-88
2022/08/30 02:09:44;;;;;;;13.38;8.02;;;;;;;16.05;87.10;102045.88;5048465;28;20390;-88
2022/08/30 02:12:10;;;;;;;13.48;8.00;;;;;;;16.00;86.75;102045.13;5046924;28;20025;-89
2022/08/30 02:14:36;;;;;;;12.15;7.20;;;;;;;15.98;87.03;102039.06;5039151;28;20036;-89
2022/08/30 02:17:04;;;;;;;14.68;8.00;;;;;;;15.90;87.58;102041.06;5039388;28;20028;-88
2022/08/30 02:19:29;;;;;;;13.02;7.95;;;;;;;15.89;86.81;102031.50;5035350;28;20497;-89
2022/08/30 02:21:55;;;;;;;12.82;7.68;;;;;;;15.83;87.25;102035.09;5049759;28;20627;-88
2022/08/30 02:24:20;;;;;;;16.02;8.02;;;;;;;15.79;87.25;102031.72;5051785;28;20107;-89
2022/08/30 02:26:46;;;;;;;14.18;7.93;;;;;;;15.77;87.43;102033.53;5048631;28;20029;-89
2022/08/30 02:29:11;;;;;;;13.55;7.65;;;;;;;15.73;87.90;102029.28;5045764;28;20032;-86
2022/08/30 02:31:37;;;;;;;15.18;8.15;;;;;;;15.72;88.48;102031.94;5051428;28;20095;-86
2022/08/30 02:34:03;;;;;;;13.10;8.00;;;;;;;15.68;88.47;102036.41;5051915;28;20119;-86
2022/08/30 02:36:29;;;;;;;14.43;8.55;;;;;;;15.64;88.01;102031.25;5041426;28;20025;-86
2022/08/30 02:38:54;;;;;;;13.45;8.65;;;;;;;15.63;88.56;102030.41;5040654;28;20040;-86
2022/08/30 02:41:22;;;;;;;18.45;8.70;;;;;;;15.62;89.17;102043.53;5048487;28;20456;-86
2022/08/30 02:43:47;;;;;;;14.77;8.55;;;;;;;15.59;88.34;102043.59;5045187;28;20037;-86
2022/08/30 02:46:13;;;;;;;16.17;7.93;;;;;;;15.59;89.13;102038.38;5038077;28;20126;-86
2022/08/30 02:48:38;;;;;;;12.38;8.40;;;;;;;15.56;89.80;102036.69;5039864;28;20299;-86
2022/08/30 02:51:09;;;;;;;15.02;9.20;;;;;;;15.60;89.67;102040.97;5046697;28;20116;-86
2022/08/30 02:53:35;;;;;;;16.08;8.30;;;;;;;15.60;89.12;102024.41;5044743;28;20158;-86
2022/08/30 02:56:01;;;;;;;16.38;8.63;;;;;;;15.57;88.76;102024.47;5046607;28;20030;-86
2022/08/30 02:58:26;;;;;;;12.88;8.95;;;;;;;15.53;88.75;102028.94;5050435;28;20025;-86
2022/08/30 03:00:51;;;;;;;17.80;8.88;;;;;;;15.52;89.22;102026.31;5047468;28;20082;-86
2022/08/30 03:03:17;;;;;;;14.02;8.48;;;;;;;15.49;89.83;102024.63;5054030;28;20410;-86
2022/08/30 03:05:42;;;;;;;16.58;9.32;;;;;;;15.47;89.39;102018.59;5048372;28;20041;-86
2022/08/30 03:08:08;;;;;;;16.73;9.73;;;;;;;15.47;89.35;102023.84;5039695;28;20024;-86
2022/08/30 03:10:34;;;;;;;17.70;9.98;;;;;;;15.47;90.62;102018.59;5051933;28;20506;-86
2022/08/30 03:13:00;;;;;;;17.13;9.73;;;;;;;15.46;89.31;102018.63;5048154;28;20044;-86
2022/08/30 03:15:25;;;;;;;15.30;9.48;;;;;;;15.47;90.22;102021.22;5035492;28;20017;-86
2022/08/30 03:17:52;;;;;;;17.25;9.50;;;;;;;15.45;89.71;102015.16;5045461;28;20112;-86
2022/08/30 03:20:19;;;;;;;16.80;9.60;;;;;;;15.43;89.46;102009.13;5045077;28;20133;-86
2022/08/30 03:22:45;;;;;;;18.38;9.88;;;;;;;15.39;90.00;102005.72;5047578;28;20398;-86
2022/08/30 03:25:10;;;;;;;16.90;9.60;;;;;;;15.35;89.82;102005.84;5046352;28;20478;-86
2022/08/30 03:27:36;;;;;;;18.35;10.30;;;;;;;15.37;90.20;102006.66;5042312;28;20559;-86
2022/08/30 03:30:01;;;;;;;19.38;9.98;;;;;;;15.34;89.74;102011.97;5043731;28;20112;-86
2022/08/30 03:32:27;;;;;;;16.13;10.00;;;;;;;15.32;90.32;102012.00;5036806;28;20426;-86
2022/08/30 03:34:52;;;;;;;17.02;10.00;;;;;;;15.29;89.89;102008.59;5038262;28;20030;-86
2022/08/30 03:37:18;;;;;;;19.42;10.10;;;;;;;15.21;90.40;102006.19;5029718;28;20033;-86
2022/08/30 03:39:44;;;;;;;16.40;9.52;;;;;;;15.28;89.90;102022.56;5040626;28;20067;-86
2022/08/30 03:42:10;;;;;;;18.17;9.88;;;;;;;15.25;90.29;102014.81;5044890;28;20063;-86
2022/08/30 03:44:35;;;;;;;16.75;10.50;;;;;;;15.25;91.04;102017.41;5057463;28;20405;-86
2022/08/30 03:47:01;;;;;;;16.42;10.15;;;;;;;15.26;90.27;102024.34;5045705;28;20036;-86
2022/08/30 03:49:26;;;;;;;16.25;10.27;;;;;;;15.25;91.18;102015.66;5046075;28;20052;-86
2022/08/30 03:51:52;;;;;;;17.60;10.65;;;;;;;15.26;91.17;102017.38;5044591;28;20631;-86
2022/08/30 03:54:17;;;;;;;18.25;10.82;;;;;;;15.22;91.00;102012.25;5040482;28;20021;-86
2022/08/30 03:56:43;;;;;;;17.67;10.32;;;;;;;15.24;90.65;102018.31;5042122;28;20398;-86
2022/08/30 03:59:08;;;;;;;19.75;10.73;;;;;;;15.22;90.61;102015.72;5041163;28;20090;-86
2022/08/30 04:01:34;;;;;;;18.60;10.65;;;;;;;15.19;90.87;102017.56;5047134;28;20036;-85
2022/08/30 04:03:59;;;;;;;20.42;10.98;;;;;;;15.20;90.53;102021.91;5047765;28;20021;-86
2022/08/30 04:06:24;;;;;;;17.38;10.57;;;;;;;15.17;90.89;102016.72;5054933;28;20029;-86
2022/08/30 04:08:50;;;;;;;17.13;10.60;;;;;;;15.17;90.76;102025.44;5050557;28;20032;-86
2022/08/30 04:11:15;;;;;;;18.17;10.65;;;;;;;15.17;91.02;102021.97;5052225;28;20604;-86
2022/08/30 04:13:42;;;;;;;18.92;11.05;;;;;;;15.13;91.77;102017.72;5050805;28;20106;-85
2022/08/30 04:16:08;;;;;;;17.65;10.52;;;;;;;15.11;91.56;102015.13;5053294;28;20024;-86
2022/08/30 04:18:34;;;;;;;19.75;11.23;;;;;;;15.10;91.19;102016.03;5050703;28;20040;-86
2022/08/30 04:21:00;;;;;;;17.50;10.98;;;;;;;15.09;90.98;102016.91;5052064;28;20474;-86
2022/08/30 04:23:27;;;;;;;17.90;10.75;;;;;;;15.07;91.79;102016.09;5060392;28;20704;-86
2022/08/30 04:25:53;;;;;;;20.20;11.65;;;;;;;15.08;91.75;102024.81;5047828;28;20490;-86
2022/08/30 04:28:18;;;;;;;19.23;11.77;;;;;;;15.06;91.79;102016.13;5050451;28;20036;-88
2022/08/30 04:30:44;;;;;;;20.55;11.85;;;;;;;15.01;92.34;102019.69;5051935;28;20029;-89
2022/08/30 04:33:11;;;;;;;22.73;12.38;;;;;;;15.00;92.65;102028.44;5051177;28;20036;-89
2022/08/30 04:35:40;;;;;;;19.60;11.57;;;;;;;14.98;91.87;102024.16;5050922;28;20029;-89
2022/08/30 04:38:06;;;;;;;21.17;12.38;;;;;;;14.94;91.95;102027.75;5047975;28;20031;-89
2022/08/30 04:40:31;;;;;;;20.85;11.80;;;;;;;14.93;92.34;102026.88;5050914;28;20029;-89
2022/08/30 04:42:58;;;;;;;20.17;12.13;;;;;;;14.92;92.36;102026.91;5052900;28;20607;-89
2022/08/30 04:45:23;;;;;;;19.33;12.13;;;;;;;14.90;91.72;102031.28;5054398;28;20289;-88
2022/08/30 04:47:48;;;;;;;19.30;12.73;;;;;;;14.85;92.13;102030.53;5064708;28;20020;-89
2022/08/30 04:50:16;;;;;;;21.13;12.30;;;;;;;14.85;92.95;102035.75;5051760;28;20099;-88
2022/08/30 04:52:42;;;;;;;21.73;12.52;;;;;;;14.82;92.26;102034.06;5051288;28;20267;-88
2022/08/30 04:55:09;;;;;;;18.80;11.75;;;;;;;14.81;92.81;102042.78;5051943;28;20036;-89
2022/08/30 04:57:35;;;;;;;19.83;12.55;;;;;;;14.81;92.23;102037.56;5047646;28;20025;-88
2022/08/30 05:00:01;;;;;;;21.10;12.55;;;;;;;14.80;92.97;102048.94;5047536;28;20111;-89
2022/08/30 05:02:26;;;;;;;23.20;12.20;;;;;;;14.81;92.48;102050.63;5051596;28;20508;-89
2022/08/30 05:07:35;;;;;;;21.33;12.50;;;;;;;14.84;92.37;102052.31;5049074;28;20096;-88
2022/08/30 05:10:01;;;;;;;19.98;12.38;;;;;;;14.84;92.90;102047.09;5051909;28;20055;-89
2022/08/30 05:12:26;;;;;;;19.50;12.65;;;;;;;14.86;92.10;102045.31;5049526;28;20017;-89
2022/08/30 05:14:52;;;;;;;20.75;12.75;;;;;;;14.85;92.87;102054.91;5056256;28;20560;-89
2022/08/30 05:17:17;;;;;;;22.38;13.52;;;;;;;14.85;92.94;102047.06;5045379;28;20033;-89
2022/08/30 05:19:42;;;;;;;22.85;13.45;;;;;;;14.86;93.34;102050.53;5051048;28;20071;-89
2022/08/30 05:22:08;;;;;;;24.73;13.38;;;;;;;14.88;93.46;102053.94;5054095;28;20033;-89
2022/08/30 05:24:34;;;;;;;24.45;13.32;;;;;;;14.88;93.39;102053.94;5043579;28;20028;-89
2022/08/30 05:26:59;;;;;;;21.25;12.93;;;;;;;14.89;92.67;102055.69;5060630;28;20024;-88
2022/08/30 05:29:25;;;;;;;23.90;13.70;;;;;;;14.86;93.20;102056.63;5061145;28;20028;-88
2022/08/30 05:31:50;;;;;;;22.95;13.00;;;;;;;14.86;92.63;102061.84;5050371;28;20096;-88
2022/08/30 05:34:15;;;;;;;23.63;13.23;;;;;;;14.86;93.22;102061.84;5050221;28;20461;-88
2022/08/30 05:36:41;;;;;;;25.27;13.32;;;;;;;14.87;92.84;102058.34;5054417;28;20316;-88
2022/08/30 05:39:08;;;;;;;23.60;13.65;;;;;;;14.88;92.90;102070.47;5053333;28;20056;-88
2022/08/30 05:41:34;;;;;;;25.67;13.90;;;;;;;14.92;93.42;102071.28;5050295;28;20482;-88
2022/08/30 05:44:01;;;;;;;24.85;13.68;;;;;;;14.92;93.86;102066.94;5054006;28;20078;-88
2022/08/30 05:46:31;;;;;;;26.65;14.02;;;;;;;14.95;92.97;102073.81;5051923;28;20481;-88
2022/08/30 05:48:58;;;;;;;25.73;13.82;;;;;;;14.99;92.88;102070.25;5049988;28;20137;-88
2022/08/30 05:51:27;;;;;;;27.08;13.73;;;;;;;15.07;93.60;102070.94;5057134;28;20111;-88
2022/08/30 05:53:54;;;;;;;27.75;14.02;;;;;;;15.12;92.49;102070.84;5052510;28;20051;-88
2022/08/30 05:56:26;;;;;;;28.48;14.43;;;;;;;15.18;93.55;102065.47;5052122;28;20039;-89
2022/08/30 05:58:53;;;;;;;23.85;14.10;;;;;;;15.25;93.26;102069.66;5052086;28;20104;-88
2022/08/30 06:01:30;;;;;;;27.95;14.00;;;;;;;15.31;92.81;102075.59;5051188;28;20486;-88
2022/08/30 06:03:59;;;;;;;23.13;13.35;;;;;;;15.38;92.54;102079.78;5048536;28;20013;-88
2022/08/30 06:06:24;;;;;;;26.02;14.23;;;;;;;15.45;92.66;102072.66;5051570;28;20071;-89
2022/08/30 06:08:49;;;;;;;25.98;14.00;;;;;;;15.48;91.70;102072.59;5051257;28;20017;-88
2022/08/30 06:11:20;;;;;;;26.93;14.43;;;;;;;15.53;91.59;102077.72;5048850;28;20017;-88
2022/08/30 06:13:46;;;;;;;24.88;13.07;;;;;;;15.56;90.73;102068.03;5058459;28;20287;-88
2022/08/30 06:16:14;;;;;;;23.40;13.55;;;;;;;15.59;90.66;102075.81;5054709;28;20075;-89
2022/08/30 06:18:40;;;;;;;27.83;14.07;;;;;;;15.60;90.76;102069.72;5047038;28;20104;-89
2022/08/30 06:21:05;;;;;;;25.02;13.27;;;;;;;15.60;90.72;102059.25;5038991;28;20123;-89
2022/08/30 06:23:32;;;;;;;22.42;13.02;;;;;;;15.62;89.88;102065.31;5053785;28;20559;-88
2022/08/30 06:26:04;;;;;;;24.73;13.52;;;;;;;15.61;90.09;102071.44;5052940;28;20037;-88
2022/08/30 06:28:29;;;;;;;24.35;13.32;;;;;;;15.61;90.13;102067.97;5047553;28;21104;-89
2022/08/30 06:30:55;;;;;;;24.50;13.88;;;;;;;15.61;90.02;102066.19;5047674;28;20078;-88
2022/08/30 06:33:20;;;;;;;21.00;13.33;;;;;;;15.62;90.26;102062.69;5049212;28;20472;-89
2022/08/30 06:35:45;;;;;;;23.27;13.80;;;;;;;15.64;90.26;102067.84;5047292;28;20349;-89
2022/08/30 06:38:13;;;;;;;23.83;14.17;;;;;;;15.67;90.88;102071.28;5043821;28;20296;-86
2022/08/30 06:40:38;;;;;;;23.55;13.77;;;;;;;15.71;90.20;102061.59;5048802;28;20275;-85
2022/08/30 06:43:03;;;;;;;21.50;13.45;;;;;;;15.75;89.74;102056.25;5050579;28;20082;-85
2022/08/30 06:45:29;;;;;;;24.20;14.25;;;;;;;15.79;90.34;102059.63;5047643;28;20041;-86
2022/08/30 06:47:55;;;;;;;22.08;13.50;;;;;;;15.83;90.33;102063.88;5042199;28;20027;-86
2022/08/30 06:50:20;;;;;;;25.83;14.68;;;;;;;15.92;91.15;102062.78;5047519;28;20037;-86
2022/08/30 06:52:46;;;;;;;22.83;13.43;;;;;;;15.98;90.60;102070.47;5048951;28;20024;-86
2022/08/30 06:55:13;;;;;;;22.25;12.80;;;;;;;16.06;88.07;102071.13;5047540;28;20337;-85
2022/08/30 06:57:38;;;;;;;21.25;12.48;;;;;;;16.11;87.73;102064.88;5048953;28;20122;-86
2022/08/30 07:00:07;;;;;;;20.17;12.18;;;;;;;16.19;87.53;102073.38;5047783;28;20067;-85
2022/08/30 07:02:32;;;;;;;20.77;12.27;;;;;;;16.27;87.93;102067.06;5051324;28;20025;-85
2022/08/30 07:04:58;;;;;;;20.08;12.23;;;;;;;16.32;86.75;102068.66;5057684;28;20071;-85
2022/08/30 07:07:23;;;;;;;16.48;10.95;;;;;;;16.38;87.62;102067.63;5043087;28;20048;-86
2022/08/30 07:09:49;;;;;;;16.83;10.98;;;;;;;16.40;88.02;102065.81;5040250;28;20530;-88
2022/08/30 07:12:14;;;;;;;17.27;10.63;;;;;;;16.47;86.44;102067.38;5047355;28;20024;-87
2022/08/30 07:14:41;;;;;;;16.65;11.13;;;;;;;16.49;87.09;102063.81;5049653;28;20465;-88
2022/08/30 07:18:49;;;;;;;18.92;10.63;;;;;;;16.54;85.89;102074.16;5048673;28;20385;-88
2022/08/30 07:19:54;;;;;;;15.30;9.88;;;;;;;16.58;85.38;102076.63;5047487;28;20191;-88
2022/08/30 07:22:19;;;;;;;13.88;9.38;;;;;;;16.65;86.30;102074.72;5048197;28;20078;-87
2022/08/30 07:24:45;;;;;;;15.98;9.75;;;;;;;16.74;84.32;102073.59;5056812;28;20033;-88
2022/08/30 07:27:11;;;;;;;13.93;9.60;;;;;;;16.81;84.30;102080.38;5049824;28;20097;-89
2022/08/30 07:29:36;;;;;;;13.85;9.15;;;;;;;16.87;83.95;102077.56;5045968;28;20103;-89
2022/08/30 07:32:02;;;;;;;17.97;9.23;;;;;;;16.95;84.70;102079.06;5049771;28;20016;-89
2022/08/30 07:34:27;;;;;;;19.25;9.88;;;;;;;17.04;83.65;102077.91;5048795;28;20295;-88
2022/08/30 07:36:52;;;;;;;14.33;9.43;;;;;;;17.14;82.18;102075.84;5047398;28;20056;-88
2022/08/30 07:39:18;;;;;;;13.60;9.17;;;;;;;17.22;82.19;102077.34;5053390;28;20293;-85
2022/08/30 07:41:44;;;;;;;12.88;8.60;;;;;;;17.27;84.32;102085.91;5048380;28;20394;-85
2022/08/30 07:44:09;;;;;;;11.77;8.35;;;;;;;17.37;81.15;102084.72;5057604;28;20086;-85
2022/08/30 07:46:36;;;;;;;15.63;8.60;;;;;;;17.40;82.27;102083.75;5051847;28;20040;-85
2022/08/30 07:49:02;;;;;;;11.30;7.78;;;;;;;17.51;83.04;102084.28;5051886;28;20510;-86
2022/08/30 07:51:27;;;;;;;16.02;8.90;;;;;;;17.65;81.62;102083.84;5047443;28;20032;-86
2022/08/30 07:53:54;;;;;;;11.23;7.97;;;;;;;17.77;79.88;102086.06;5053456;28;20020;-85
2022/08/30 07:56:20;;;;;;;11.90;7.47;;;;;;;17.86;81.30;102090.16;5052006;28;20020;-85
2022/08/30 07:58:46;;;;;;;13.32;8.18;;;;;;;17.96;79.04;102089.75;5053708;28;20486;-85
2022/08/30 08:01:12;;;;;;;11.63;7.63;;;;;;;18.04;78.46;102087.75;5051260;28;20478;-86
2022/08/30 08:03:39;;;;;;;12.85;7.70;;;;;;;18.10;78.95;102095.41;5051435;28;20041;-86
2022/08/30 08:06:05;;;;;;;12.82;7.55;;;;;;;18.26;76.70;102081.72;5049319;28;20490;-86
2022/08/30 08:08:32;;;;;;;8.95;6.55;;;;;;;18.37;77.55;102084.81;5042406;28;20029;-86
2022/08/30 08:10:57;;;;;;;10.93;6.80;;;;;;;18.52;75.41;102089.53;5048277;28;20032;-86
2022/08/30 08:13:23;;;;;;;10.85;6.32;;;;;;;18.65;75.47;102087.31;5051826;28;20028;-86
2022/08/30 08:15:49;;;;;;;11.70;6.25;;;;;;;18.82;74.68;102091.03;5051366;28;20389;-86
2022/08/30 08:18:14;;;;;;;9.60;6.20;;;;;;;18.93;73.48;102086.22;5051972;28;20085;-86
2022/08/30 08:20:40;;;;;;;8.43;5.80;;;;;;;19.09;73.25;102088.25;5046097;28;20029;-86
2022/08/30 08:23:06;;;;;;;11.43;6.10;;;;;;;19.27;72.45;102090.16;5056701;28;20194;-86
2022/08/30 08:25:32;;;;;;;11.77;5.53;;;;;;;19.43;71.71;102087.78;5052637;28;20040;-86
2022/08/30 08:27:57;;;;;;;8.23;5.80;;;;;;;19.56;70.09;102089.00;5051163;28;20478;-86
2022/08/30 08:30:22;;;;;;;12.25;5.90;;;;;;;19.66;69.43;102080.66;5050739;28;20149;-86
2022/08/30 08:32:49;;;;;;;8.48;5.97;;;;;;;19.77;68.98;102087.25;5061990;28;20024;-86
2022/08/30 08:35:16;;;;;;;9.57;5.88;;;;;;;19.89;69.16;102092.00;5039574;28;20561;-86
2022/08/30 08:37:41;;;;;;;9.20;5.47;;;;;;;20.10;66.87;102085.81;5051169;28;20024;-86
2022/08/30 08:40:11;;;;;;;7.15;4.88;;;;;;;20.34;70.38;102094.44;5050187;28;20040;-89
2022/08/30 08:42:59;;;;;;;8.55;5.38;;;;;;;20.69;68.86;102092.84;5039103;28;20481;-89
2022/08/30 08:45:43;;;;;;;7.85;5.32;;;;;;;20.87;66.38;102086.75;5049658;28;20107;-89
2022/08/30 08:48:11;;;;;;;8.07;5.03;;;;;;;20.85;66.02;102088.59;5050683;28;20451;-90
2022/08/30 08:53:33;;;;;;;10.75;5.07;;;;;;;20.70;62.13;102102.47;5042637;28;20026;-88
2022/08/30 08:53:34;;;;;;;11.40;5.40;;;;;;;20.54;62.89;102109.38;5055357;28;20037;-88
2022/08/30 08:56:03;;;;;;;7.95;4.82;;;;;;;20.42;64.39;102110.75;5039702;28;20469;-89
2022/08/30 08:58:36;;;;;;;11.05;5.30;;;;;;;20.52;63.37;102114.72;5046234;28;20021;-89
2022/08/30 09:01:01;;;;;;;7.15;4.70;;;;;;;20.62;64.43;102107.22;5048408;28;20025;-89
2022/08/30 09:03:28;;;;;;;12.23;4.72;;;;;;;20.86;63.50;102106.13;5043505;28;20083;-88
2022/08/30 09:05:56;;;;;;;7.05;4.95;;;;;;;20.95;61.86;102110.13;5060288;28;20342;-88
2022/08/30 09:08:22;;;;;;;8.57;4.78;;;;;;;20.89;61.81;102105.97;5050158;28;20020;-88
2022/08/30 09:10:55;;;;;;;8.40;4.50;;;;;;;20.75;62.76;102113.66;5051305;28;20454;-88
2022/08/30 09:13:21;;;;;;;8.50;5.32;;;;;;;20.68;63.21;102113.06;5052621;28;20490;-88
2022/08/30 09:15:47;;;;;;;6.47;4.90;;;;;;;20.67;61.67;102108.75;5056769;28;20036;-89
2022/08/30 09:18:12;;;;;;;8.00;4.85;;;;;;;20.72;63.07;102104.13;5052433;28;20025;-89
2022/08/30 09:20:42;;;;;;;8.85;4.68;;;;;;;20.92;63.88;102102.34;5052368;28;20029;-88
2022/08/30 09:23:26;;;;;;;10.30;4.53;;;;;;;21.20;62.78;102105.41;5040197;28;20601;-89
2022/08/30 09:25:58;;;;;;;7.60;4.90;;;;;;;21.41;62.27;102100.88;5041899;28;20025;-89
2022/08/30 09:28:26;;;;;;;13.43;5.10;;;;;;;21.52;61.05;102099.41;5045443;28;20524;-89
2022/08/30 09:31:16;;;;;;;11.73;4.57;;;;;;;21.61;60.89;102111.31;5049212;28;20549;-88
2022/08/30 09:34:00;;;;;;;9.30;4.15;;;;;;;21.63;61.65;102101.56;5048644;28;20119;-89
2022/08/30 09:36:28;;;;;;;6.78;4.05;;;;;;;21.67;60.67;102111.88;5052538;28;20033;-88
2022/08/30 09:39:00;;;;;;;10.52;4.32;;;;;;;21.66;59.25;102112.78;5048492;28;20116;-88
2022/08/30 09:41:48;;;;;;;9.73;3.90;;;;;;;21.79;61.03;102106.88;5049677;28;20088;-89
2022/08/30 09:44:21;;;;;;;5.80;4.20;;;;;;;21.74;60.26;102107.13;5048099;28;20588;-89
2022/08/30 09:46:51;;;;;;;7.22;3.90;;;;;;;21.72;60.67;102102.84;5053708;28;20029;-90
2022/08/30 09:49:38;;;;;;;6.07;3.67;;;;;;;21.81;60.25;102097.13;5052199;28;20389;-90
2022/08/30 09:52:22;;;;;;;7.32;3.65;;;;;;;21.97;60.31;102106.00;5047870;28;20025;-88
2022/08/30 09:55:01;;;;;;;6.65;3.85;;;;;;;22.11;57.53;102100.03;5052628;28;20056;-89
2022/08/30 09:57:44;;;;;;;6.75;3.95;;;;;;;22.19;58.34;102105.72;5051018;28;20087;-89
2022/08/30 10:00:20;;;;;;;6.07;3.40;;;;;;;22.26;56.94;102099.19;5043253;28;20498;-89
2022/08/30 10:03:03;;;;;;;5.97;3.40;;;;;;;22.30;59.58;102103.41;5061636;28;20287;-89
2022/08/30 10:05:28;;;;;;;9.10;3.50;;;;;;;22.23;56.01;102102.88;5054016;28;20028;-90
2022/08/30 10:08:17;;;;;;;5.67;3.53;;;;;;;22.07;57.13;102101.94;5049193;28;20090;-89
2022/08/30 10:10:47;;;;;;;6.55;3.80;;;;;;;21.91;56.77;102099.19;5049533;28;20060;-88
2022/08/30 10:13:38;;;;;;;4.72;3.28;;;;;;;22.02;57.71;102102.19;5047488;28;20493;-89
2022/08/30 10:16:25;;;;;;;10.27;3.90;;;;;;;22.31;58.52;102095.38;5049360;28;20107;-89
2022/08/30 10:19:12;;;;;;;4.78;2.90;;;;;;;22.48;57.62;102097.13;5048524;28;20514;-89
2022/08/30 10:21:46;;;;;;;6.40;3.42;;;;;;;22.59;56.51;102099.19;5053248;28;20486;-89
2022/08/30 10:24:16;;;;;;;7.22;3.70;;;;;;;22.62;54.88;102093.75;5047083;28;20075;-89
2022/08/30 10:27:07;;;;;;;7.60;3.30;;;;;;;22.63;55.99;102098.09;5049081;28;20509;-89
2022/08/30 10:29:41;;;;;;;7.85;3.50;;;;;;;22.55;54.60;102095.88;5045197;28;20531;-88
2022/08/30 10:32:14;;;;;;;;;;;;;;;22.65;56.81;102093.59;5041560;28;20031;-89
2022/08/30 10:34:47;;;;;;;8.95;3.30;;;;;;;22.68;55.77;102088.13;5051367;28;19912;-89
2022/08/30 10:37:18;;;;;;;7.53;3.30;;;;;;;22.84;55.42;102083.75;5054556;28;20082;-89
2022/08/30 10:39:47;;;;;;;7.75;3.20;;;;;;;22.98;53.15;102083.84;5049194;28;20096;-89
2022/08/30 10:42:24;;;;;;;7.15;3.70;;;;;;;22.97;53.75;102090.06;5047417;28;20128;-88
2022/08/30 10:45:13;;;;;;;5.35;3.25;;;;;;;22.89;54.76;102088.78;5047508;28;20103;-89
2022/08/30 10:47:43;;;;;;;7.55;3.50;;;;;;;22.65;53.03;102083.88;5036268;28;20028;-89
2022/08/30 10:50:17;;;;;;;6.82;3.85;;;;;;;22.58;53.07;102089.56;5047559;28;20049;-87
2022/08/30 10:52:48;;;;;;;6.28;3.65;;;;;;;22.59;51.85;102085.97;5044995;28;20481;-87
2022/08/30 10:55:22;;;;;;;7.82;3.70;;;;;;;22.54;53.37;102083.59;5049126;28;20056;-87
2022/08/30 10:57:48;;;;;;;;;;;;;;;22.64;54.48;102084.81;5049972;28;20021;-87
2022/08/30 11:00:27;;;;;;;5.60;3.35;;;;;;;22.63;54.68;102076.97;5047988;28;19954;-87
2022/08/30 11:03:36;;;;;;;6.95;3.20;;;;;;;22.65;55.45;102075.94;5045302;28;20518;-87
2022/08/30 11:06:54;;;;;;;8.68;3.67;;;;;;;22.84;54.83;102075.81;5048577;28;20420;-88
2022/08/30 11:09:47;;;;;;;7.05;3.03;;;;;;;23.03;54.03;102071.19;5030345;28;20041;-88
2022/08/30 11:12:34;;;;;;;8.10;3.20;;;;;;;23.14;54.98;102074.09;5047032;28;20059;-88
2022/08/30 11:15:13;;;;;;;7.00;3.70;;;;;;;23.26;51.65;102071.69;5048728;28;20043;-88
2022/08/30 11:17:54;;;;;;;8.05;4.00;;;;;;;23.09;51.25;102073.50;5063167;28;20532;-88
2022/08/30 11:20:43;;;;;;;7.97;3.65;;;;;;;22.98;52.17;102062.69;5052760;28;20032;-90
2022/08/30 11:23:15;;;;;;;7.40;3.20;;;;;;;22.88;52.91;102072.06;5049806;28;20481;-89
2022/08/30 11:25:51;;;;;;;7.18;3.50;;;;;;;22.86;52.31;102067.81;5052868;28;20068;-89
2022/08/30 11:28:34;;;;;;;6.97;3.60;;;;;;;22.89;52.62;102064.97;5051902;28;20079;-89